createdAt,value
2022-12-25T00:00:29.411Z,8.18
2022-12-25T00:02:57.700Z,8.88
2022-12-25T00:05:25.983Z,7.95
2022-12-25T00:07:54.162Z,9.23
2022-12-25T00:10:23.969Z,8.50
2022-12-25T00:12:52.498Z,10.10
2022-12-25T00:15:20.769Z,8.27
2022-12-25T00:17:48.801Z,8.60
2022-12-25T00:20:17.090Z,8.30
2022-12-25T00:22:45.155Z,8.55
2022-12-25T00:25:13.352Z,7.25
2022-12-25T00:27:42.937Z,7.70
2022-12-25T00:30:12.051Z,7.55
2022-12-25T00:32:40.245Z,7.50
2022-12-25T00:35:08.907Z,7.10
2022-12-25T00:37:37.022Z,7.60
2022-12-25T00:40:05.968Z,7.50
2022-12-25T00:42:34.077Z,7.53
2022-12-25T00:45:04.790Z,8.45
2022-12-25T00:47:32.989Z,7.22
2022-12-25T00:50:01.166Z,6.40
2022-12-25T00:52:29.277Z,7.38
2022-12-25T00:54:57.333Z,7.28
2022-12-25T00:57:25.498Z,6.18
2022-12-25T00:59:53.635Z,5.88
2022-12-25T01:02:26.329Z,7.18
2022-12-25T01:04:56.538Z,7.15
2022-12-25T01:07:26.940Z,6.78
2022-12-25T01:10:12.477Z,6.30
2022-12-25T01:12:42.795Z,7.03
2022-12-25T01:15:13.150Z,7.70
2022-12-25T01:17:43.556Z,7.03
2022-12-25T01:20:13.566Z,6.50
2022-12-25T01:22:41.865Z,6.88
2022-12-25T01:25:11.072Z,6.50
2022-12-25T01:27:40.166Z,6.97
2022-12-25T01:30:09.451Z,6.18
2022-12-25T01:32:37.629Z,7.45
2022-12-25T01:35:08.012Z,7.10
2022-12-25T01:37:36.038Z,6.22
2022-12-25T01:40:04.802Z,5.53
2022-12-25T01:42:35.599Z,6.75
2022-12-25T01:45:34.657Z,6.72
2022-12-25T01:48:06.539Z,7.43
2022-12-25T01:50:38.573Z,7.57
2022-12-25T01:53:07.687Z,6.68
2022-12-25T01:55:37.118Z,9.80
2022-12-25T01:58:05.739Z,7.13
2022-12-25T02:00:34.427Z,6.72
2022-12-25T02:03:02.959Z,6.15
2022-12-25T02:05:33.363Z,6.07
2022-12-25T02:08:09.596Z,6.43
2022-12-25T02:10:39.161Z,6.22
2022-12-25T02:13:08.118Z,5.97
2022-12-25T02:15:45.084Z,6.93
2022-12-25T02:18:20.693Z,6.38
2022-12-25T02:21:09.556Z,5.82
2022-12-25T02:24:07.471Z,5.45
2022-12-25T02:27:04.981Z,8.15
2022-12-25T02:29:43.483Z,6.18
2022-12-25T02:32:21.647Z,5.65
2022-12-25T02:34:54.386Z,4.68
2022-12-25T02:37:28.929Z,6.15
2022-12-25T02:40:01.975Z,7.93
2022-12-25T02:42:54.579Z,6.65
2022-12-25T02:45:49.658Z,5.05
2022-12-25T02:48:37.527Z,6.38
2022-12-25T02:51:27.356Z,5.78
2022-12-25T02:54:16.114Z,5.22
2022-12-25T02:57:05.419Z,6.68
2022-12-25T02:59:54.843Z,6.35
2022-12-25T03:02:43.074Z,6.70
2022-12-25T03:05:32.383Z,6.00
2022-12-25T03:08:05.826Z,6.85
2022-12-25T03:10:56.355Z,7.38
2022-12-25T03:13:30.160Z,5.70
2022-12-25T03:16:15.511Z,5.85
2022-12-25T03:18:45.679Z,5.20
2022-12-25T03:21:31.490Z,5.97
2022-12-25T03:24:19.810Z,5.60
2022-12-25T03:26:56.979Z,6.53
2022-12-25T03:29:44.774Z,6.72
2022-12-25T03:32:23.599Z,5.50
2022-12-25T03:35:21.268Z,5.88
2022-12-25T03:38:28.429Z,6.70
2022-12-25T03:41:24.303Z,5.45
2022-12-25T03:44:16.858Z,5.60
2022-12-25T03:47:07.228Z,5.53
2022-12-25T03:50:03.576Z,5.20
2022-12-25T03:52:53.170Z,6.85
2022-12-25T03:55:54.461Z,4.90
2022-12-25T03:58:42.356Z,6.78
2022-12-25T04:01:28.015Z,6.38
2022-12-25T04:04:13.853Z,7.10
2022-12-25T04:06:59.676Z,4.75
2022-12-25T04:09:47.173Z,6.57
2022-12-25T04:12:32.535Z,4.78
2022-12-25T04:15:18.019Z,6.43
2022-12-25T04:18:03.359Z,6.50
2022-12-25T04:20:48.782Z,5.20
2022-12-25T04:23:34.480Z,6.28
2022-12-25T04:26:22.247Z,6.22
2022-12-25T04:29:07.876Z,5.40
2022-12-25T04:31:53.220Z,6.20
2022-12-25T04:34:38.474Z,5.22
2022-12-25T04:37:06.590Z,5.45
2022-12-25T04:39:34.943Z,6.00
2022-12-25T04:42:04.461Z,6.32
2022-12-25T04:44:32.627Z,4.82
2022-12-25T04:47:04.506Z,4.75
2022-12-25T04:49:35.718Z,5.30
2022-12-25T04:52:03.888Z,6.20
2022-12-25T04:54:32.054Z,5.32
2022-12-25T04:57:00.158Z,6.70
2022-12-25T04:59:29.582Z,5.55
2022-12-25T05:01:57.881Z,4.85
2022-12-25T05:04:25.996Z,5.82
2022-12-25T05:06:54.103Z,5.18
2022-12-25T05:09:22.214Z,5.22
2022-12-25T05:11:53.387Z,5.60
2022-12-25T05:14:21.515Z,5.40
2022-12-25T05:16:51.220Z,5.70
2022-12-25T05:19:19.806Z,5.03
2022-12-25T05:21:47.903Z,6.15
2022-12-25T05:24:16.011Z,6.47
2022-12-25T05:26:44.105Z,4.32
2022-12-25T05:29:12.197Z,4.97
2022-12-25T05:31:40.319Z,5.82
2022-12-25T05:34:09.742Z,4.50
2022-12-25T05:36:39.413Z,5.05
2022-12-25T05:39:07.561Z,4.50
2022-12-25T05:41:35.623Z,4.47
2022-12-25T05:44:03.766Z,5.32
2022-12-25T05:46:35.073Z,4.40
2022-12-25T05:49:03.164Z,5.82
2022-12-25T05:51:33.057Z,4.47
2022-12-25T05:54:01.156Z,5.95
2022-12-25T05:56:29.468Z,4.15
2022-12-25T05:58:57.632Z,5.13
2022-12-25T06:01:28.578Z,4.38
2022-12-25T06:03:57.842Z,4.97
2022-12-25T06:06:26.328Z,4.68
2022-12-25T06:08:56.847Z,5.30
2022-12-25T06:11:25.056Z,5.28
2022-12-25T06:13:54.137Z,4.20
2022-12-25T06:16:22.354Z,4.80
2022-12-25T06:18:52.955Z,4.20
2022-12-25T06:21:21.157Z,4.97
2022-12-25T06:23:49.469Z,4.35
2022-12-25T06:26:20.403Z,4.85
2022-12-25T06:28:48.894Z,4.82
2022-12-25T06:31:20.150Z,4.78
2022-12-25T06:33:48.631Z,6.03
2022-12-25T06:36:19.126Z,4.75
2022-12-25T06:38:47.605Z,4.38
2022-12-25T06:41:19.174Z,4.05
2022-12-25T06:43:49.848Z,5.45
2022-12-25T06:46:18.641Z,5.38
2022-12-25T06:48:49.526Z,5.75
2022-12-25T06:51:19.166Z,4.95
2022-12-25T06:53:47.685Z,4.65
2022-12-25T06:56:20.549Z,5.32
2022-12-25T06:58:50.505Z,5.10
2022-12-25T07:01:23.040Z,4.93
2022-12-25T07:03:54.467Z,5.03
2022-12-25T07:06:22.955Z,3.92
2022-12-25T07:08:51.102Z,4.45
2022-12-25T07:11:21.065Z,4.30
2022-12-25T07:13:49.242Z,4.28
2022-12-25T07:16:17.697Z,4.35
2022-12-25T07:18:45.917Z,4.28
2022-12-25T07:21:16.252Z,4.28
2022-12-25T07:23:45.437Z,4.93
2022-12-25T07:26:14.384Z,4.63
2022-12-25T07:28:44.278Z,5.18
2022-12-25T07:31:14.758Z,3.88
2022-12-25T07:33:43.268Z,4.63
2022-12-25T07:36:12.878Z,4.70
2022-12-25T07:38:41.766Z,4.35
2022-12-25T07:41:11.203Z,5.53
2022-12-25T07:43:39.616Z,4.45
2022-12-25T07:46:09.167Z,4.75
2022-12-25T07:48:38.255Z,5.45
2022-12-25T07:51:08.296Z,4.45
2022-12-25T07:53:37.336Z,4.68
2022-12-25T07:56:07.259Z,4.57
2022-12-25T07:58:35.833Z,5.78
2022-12-25T08:01:05.565Z,5.47
2022-12-25T08:03:36.562Z,4.65
2022-12-25T08:06:07.093Z,5.60
2022-12-25T08:08:36.095Z,4.55
2022-12-25T08:11:04.429Z,6.40
2022-12-25T08:13:33.056Z,5.00
2022-12-25T08:16:02.841Z,4.15
2022-12-25T08:18:31.859Z,4.22
2022-12-25T08:21:05.312Z,5.05
2022-12-25T08:23:35.091Z,4.80
2022-12-25T08:26:05.545Z,4.65
2022-12-25T08:28:35.592Z,4.38
2022-12-25T08:31:08.961Z,6.72
2022-12-25T08:33:37.556Z,5.95
2022-12-25T08:36:09.431Z,5.15
2022-12-25T08:38:37.831Z,4.38
2022-12-25T08:41:06.527Z,4.78
2022-12-25T08:43:37.846Z,4.97
2022-12-25T08:46:07.083Z,4.82
2022-12-25T08:48:35.682Z,5.03
2022-12-25T08:51:04.889Z,6.20
2022-12-25T08:53:34.476Z,6.05
2022-12-25T08:56:04.856Z,6.57
2022-12-25T08:58:33.661Z,5.97
2022-12-25T09:01:01.948Z,5.53
2022-12-25T09:03:32.169Z,6.22
2022-12-25T09:06:04.031Z,5.18
2022-12-25T09:08:38.020Z,5.03
2022-12-25T09:11:13.749Z,6.43
2022-12-25T09:13:42.556Z,6.25
2022-12-25T09:16:13.051Z,7.03
2022-12-25T09:18:41.558Z,5.85
2022-12-25T09:21:13.255Z,5.22
2022-12-25T09:23:43.382Z,5.65
2022-12-25T09:26:14.184Z,6.60
2022-12-25T09:28:48.479Z,5.18
2022-12-25T09:31:19.407Z,6.75
2022-12-25T09:33:47.703Z,5.35
2022-12-25T09:36:15.864Z,6.85
2022-12-25T09:38:45.327Z,5.78
2022-12-25T09:41:18.123Z,6.45
2022-12-25T09:43:50.325Z,5.93
2022-12-25T09:46:22.837Z,5.15
2022-12-25T09:48:58.712Z,6.13
2022-12-25T09:51:30.705Z,5.00
2022-12-25T09:54:04.525Z,6.43
2022-12-25T09:56:34.022Z,5.88
2022-12-25T09:59:02.179Z,8.27
2022-12-25T10:01:39.715Z,5.35
2022-12-25T10:04:28.652Z,6.47
2022-12-25T10:07:09.492Z,6.28
2022-12-25T10:09:53.562Z,5.70
2022-12-25T10:12:38.543Z,6.20
2022-12-25T10:15:23.243Z,6.43
2022-12-25T10:18:06.889Z,6.10
2022-12-25T10:20:43.953Z,5.38
2022-12-25T10:23:17.178Z,8.82
2022-12-25T10:25:47.500Z,8.52
2022-12-25T10:28:20.732Z,6.65
2022-12-25T10:33:18.326Z,6.05
2022-12-25T10:35:46.948Z,7.22
2022-12-25T10:38:16.904Z,9.13
2022-12-25T10:41:01.133Z,11.35
2022-12-25T10:43:37.110Z,9.10
2022-12-25T10:46:12.836Z,11.05
2022-12-25T10:48:44.447Z,11.50
2022-12-25T10:51:12.795Z,10.10
2022-12-25T10:53:42.862Z,13.57
2022-12-25T10:56:18.750Z,12.13
2022-12-25T10:58:47.100Z,10.43
2022-12-25T11:01:15.833Z,9.95
2022-12-25T11:03:48.438Z,10.23
2022-12-25T11:06:25.454Z,13.43
2022-12-25T11:08:56.501Z,10.13
2022-12-25T11:11:27.171Z,8.27
2022-12-25T11:13:58.794Z,7.03
2022-12-25T11:16:30.120Z,11.15
2022-12-25T11:18:59.913Z,9.70
2022-12-25T11:21:30.673Z,13.32
2022-12-25T11:24:00.625Z,13.52
2022-12-25T11:26:32.230Z,10.68
2022-12-25T11:29:00.551Z,13.73
2022-12-25T11:31:37.573Z,10.18
2022-12-25T11:34:11.330Z,11.38
2022-12-25T11:36:45.634Z,12.52
2022-12-25T11:39:22.179Z,14.05
2022-12-25T11:41:55.815Z,14.07
2022-12-25T11:44:34.537Z,10.25
2022-12-25T11:47:12.950Z,10.95
2022-12-25T11:49:50.204Z,8.75
2022-12-25T11:52:21.097Z,11.70
2022-12-25T11:54:57.093Z,12.95
2022-12-25T11:57:30.846Z,13.20
2022-12-25T12:00:04.263Z,10.20
2022-12-25T12:02:37.483Z,13.80
2022-12-25T12:07:48.333Z,7.65
2022-12-25T12:10:20.727Z,7.70
2022-12-25T12:12:58.971Z,9.20
2022-12-25T12:15:30.756Z,8.98
2022-12-25T12:18:09.292Z,7.65
2022-12-25T12:20:38.224Z,7.85
2022-12-25T12:23:16.322Z,10.85
2022-12-25T12:25:46.231Z,7.85
2022-12-25T12:28:23.094Z,9.75
2022-12-25T12:31:03.345Z,8.68
2022-12-25T12:33:35.891Z,7.90
2022-12-25T12:36:05.549Z,7.00
2022-12-25T12:38:35.434Z,7.10
2022-12-25T12:41:07.092Z,9.63
2022-12-25T12:43:40.205Z,10.20
2022-12-25T12:48:44.978Z,9.32
2022-12-25T12:51:15.882Z,5.13
2022-12-25T12:53:44.879Z,7.05
2022-12-25T12:56:15.888Z,6.93
2022-12-25T12:58:50.802Z,6.00
2022-12-25T13:01:35.927Z,9.05
2022-12-25T13:04:36.795Z,6.47
2022-12-25T13:07:12.158Z,5.47
2022-12-25T13:09:52.616Z,6.25
2022-12-25T13:12:23.337Z,7.07
2022-12-25T13:14:52.990Z,7.40
2022-12-25T13:17:25.712Z,6.50
2022-12-25T13:19:57.905Z,6.47
2022-12-25T13:22:32.364Z,9.73
2022-12-25T13:25:02.044Z,6.05
2022-12-25T13:27:32.724Z,7.25
2022-12-25T13:30:14.429Z,6.20
2022-12-25T13:32:45.865Z,6.45
2022-12-25T13:35:15.229Z,6.43
2022-12-25T13:37:44.522Z,6.00
2022-12-25T13:40:22.368Z,6.00
2022-12-25T13:42:55.355Z,5.88
2022-12-25T13:45:26.634Z,6.07
2022-12-25T13:47:56.145Z,7.78
2022-12-25T13:50:26.563Z,5.13
2022-12-25T13:52:57.009Z,6.03
2022-12-25T13:55:27.003Z,6.00
2022-12-25T13:57:57.811Z,5.78
2022-12-25T14:00:34.573Z,5.68
2022-12-25T14:03:03.961Z,5.25
2022-12-25T14:05:41.654Z,6.40
2022-12-25T14:08:16.158Z,6.43
2022-12-25T14:10:49.343Z,7.07
2022-12-25T14:15:48.979Z,6.38
2022-12-25T14:18:18.726Z,5.43
2022-12-25T14:20:59.080Z,6.53
2022-12-25T14:23:27.999Z,5.85
2022-12-25T14:25:56.514Z,5.28
2022-12-25T14:28:32.399Z,4.85
2022-12-25T14:31:03.041Z,5.50
2022-12-25T14:33:36.483Z,5.60
2022-12-25T14:36:05.116Z,5.18
2022-12-25T14:38:35.229Z,6.60
2022-12-25T14:41:05.185Z,6.32
2022-12-25T14:43:34.569Z,6.18
2022-12-25T14:46:06.963Z,4.80
2022-12-25T14:48:35.343Z,4.80
2022-12-25T14:51:07.201Z,5.95
2022-12-25T14:53:38.597Z,5.30
2022-12-25T14:56:09.511Z,5.88
2022-12-25T14:58:42.841Z,4.80
2022-12-25T15:03:49.984Z,4.90
2022-12-25T15:06:20.932Z,4.68
2022-12-25T15:08:57.618Z,5.10
2022-12-25T15:11:25.929Z,5.85
2022-12-25T15:13:54.188Z,6.57
2022-12-25T15:16:25.744Z,5.18
2022-12-25T15:18:54.946Z,6.90
2022-12-25T15:21:27.272Z,8.15
2022-12-25T15:23:57.862Z,6.30
2022-12-25T15:26:26.991Z,5.45
2022-12-25T15:28:55.193Z,5.47
2022-12-25T15:31:26.996Z,4.93
2022-12-25T15:33:56.347Z,6.22
2022-12-25T15:36:25.376Z,7.22
2022-12-25T15:38:54.272Z,5.70
2022-12-25T15:41:44.933Z,7.63
2022-12-25T15:44:14.087Z,5.35
2022-12-25T15:46:44.290Z,7.22
2022-12-25T15:49:13.292Z,6.20
2022-12-25T15:51:42.688Z,5.20
2022-12-25T15:54:13.906Z,6.72
2022-12-25T15:56:45.714Z,6.40
2022-12-25T15:59:15.570Z,6.68
2022-12-25T16:01:48.449Z,6.05
2022-12-25T16:04:17.010Z,6.70
2022-12-25T16:06:45.142Z,5.53
2022-12-25T16:09:14.341Z,6.03
2022-12-25T16:11:42.789Z,5.50
2022-12-25T16:14:11.464Z,5.10
2022-12-25T16:16:42.538Z,6.10
2022-12-25T16:19:17.636Z,5.75
2022-12-25T16:21:47.976Z,5.22
2022-12-25T16:24:16.081Z,5.82
2022-12-25T16:26:45.091Z,5.45
2022-12-25T16:29:13.323Z,5.05
2022-12-25T16:31:42.397Z,6.07
2022-12-25T16:34:11.076Z,5.63
2022-12-25T16:36:40.572Z,6.47
2022-12-25T16:39:08.985Z,6.55
2022-12-25T16:41:37.170Z,7.05
2022-12-25T16:44:09.480Z,6.43
2022-12-25T16:46:38.609Z,5.53
2022-12-25T16:49:06.812Z,7.10
2022-12-25T16:51:34.963Z,6.60
2022-12-25T16:54:04.505Z,6.53
2022-12-25T16:56:32.984Z,5.15
2022-12-25T16:59:03.448Z,6.85
2022-12-25T17:01:33.436Z,6.07
2022-12-25T17:04:02.560Z,7.22
2022-12-25T17:06:30.876Z,6.88
2022-12-25T17:09:02.304Z,8.65
2022-12-25T17:11:32.876Z,5.80
2022-12-25T17:14:03.582Z,6.20
2022-12-25T17:16:34.230Z,5.63
2022-12-25T17:19:05.249Z,6.55
2022-12-25T17:21:34.335Z,5.90
2022-12-25T17:24:03.975Z,6.93
2022-12-25T17:26:34.323Z,6.60
2022-12-25T17:29:02.644Z,6.15
2022-12-25T17:31:31.190Z,6.55
2022-12-25T17:34:01.414Z,7.15
2022-12-25T17:36:29.929Z,6.03
2022-12-25T17:38:59.812Z,6.93
2022-12-25T17:41:28.538Z,5.97
2022-12-25T17:43:58.138Z,7.45
2022-12-25T17:46:27.810Z,6.70
2022-12-25T17:48:57.658Z,6.93
2022-12-25T17:51:27.310Z,10.02
2022-12-25T17:53:57.275Z,8.85
2022-12-25T17:56:25.927Z,6.30
2022-12-25T17:58:55.690Z,6.60
2022-12-25T18:01:27.103Z,5.30
2022-12-25T18:03:55.936Z,7.03
2022-12-25T18:06:25.924Z,7.82
2022-12-25T18:08:55.338Z,6.15
2022-12-25T18:11:27.638Z,7.25
2022-12-25T18:13:58.003Z,7.05
2022-12-25T18:16:28.465Z,6.35
2022-12-25T18:19:00.303Z,6.97
2022-12-25T18:21:29.384Z,7.10
2022-12-25T18:23:57.954Z,7.07
2022-12-25T18:26:28.782Z,6.38
2022-12-25T18:28:57.463Z,7.25
2022-12-25T18:31:30.207Z,6.40
2022-12-25T18:33:59.986Z,5.70
2022-12-25T18:36:29.808Z,8.27
2022-12-25T18:38:58.958Z,7.03
2022-12-25T18:41:28.996Z,7.88
2022-12-25T18:43:57.199Z,7.43
2022-12-25T18:46:28.718Z,6.63
2022-12-25T18:49:00.243Z,6.90
2022-12-25T18:51:34.939Z,7.65
2022-12-25T18:54:05.305Z,7.47
2022-12-25T18:56:36.617Z,7.13
2022-12-25T18:59:04.958Z,5.60
2022-12-25T19:01:34.807Z,6.07
2022-12-25T19:04:05.600Z,7.35
2022-12-25T19:06:34.664Z,6.82
2022-12-25T19:09:08.775Z,6.70
2022-12-25T19:11:40.457Z,5.65
2022-12-25T19:14:14.235Z,8.35
2022-12-25T19:16:44.006Z,7.13
2022-12-25T19:19:13.246Z,6.93
2022-12-25T19:21:41.847Z,6.53
2022-12-25T19:24:10.416Z,6.38
2022-12-25T19:26:38.653Z,7.43
2022-12-25T19:29:07.155Z,5.53
2022-12-25T19:31:37.480Z,6.25
2022-12-25T19:34:07.410Z,6.32
2022-12-25T19:36:36.584Z,7.30
2022-12-25T19:39:09.111Z,5.55
2022-12-25T19:41:37.393Z,7.68
2022-12-25T19:44:06.654Z,7.80
2022-12-25T19:46:41.906Z,8.13
2022-12-25T19:49:17.163Z,6.88
2022-12-25T19:51:47.049Z,5.93
2022-12-25T19:54:17.235Z,6.18
2022-12-25T19:56:45.550Z,6.45
2022-12-25T19:59:14.573Z,7.32
2022-12-25T20:01:43.856Z,8.38
2022-12-25T20:04:18.142Z,5.40
2022-12-25T20:06:46.988Z,7.80
2022-12-25T20:09:21.028Z,8.02
2022-12-25T20:11:50.295Z,7.07
2022-12-25T20:14:19.587Z,7.10
2022-12-25T20:16:48.104Z,6.65
2022-12-25T20:19:17.779Z,7.10
2022-12-25T20:21:46.205Z,7.25
2022-12-25T20:24:14.392Z,7.88
2022-12-25T20:26:44.380Z,7.80
2022-12-25T20:31:43.841Z,7.15
2022-12-25T20:34:15.032Z,7.80
2022-12-25T20:36:45.357Z,8.15
2022-12-25T20:39:14.246Z,6.85
2022-12-25T20:41:42.829Z,6.43
2022-12-25T20:44:10.926Z,7.30
2022-12-25T20:46:39.086Z,7.38
2022-12-25T20:49:07.334Z,7.50
2022-12-25T20:51:45.546Z,7.35
2022-12-25T20:54:14.927Z,7.43
2022-12-25T20:56:43.096Z,8.15
2022-12-25T20:59:12.281Z,8.00
2022-12-25T21:01:40.561Z,8.80
2022-12-25T21:04:12.971Z,9.15
2022-12-25T21:06:45.541Z,9.15
2022-12-25T21:09:13.782Z,10.73
2022-12-25T21:11:41.897Z,8.25
2022-12-25T21:14:10.156Z,8.93
2022-12-25T21:16:38.405Z,8.25
2022-12-25T21:19:06.600Z,8.45
2022-12-25T21:21:35.994Z,9.13
2022-12-25T21:24:05.771Z,8.82
2022-12-25T21:26:33.940Z,9.75
2022-12-25T21:29:03.227Z,9.40
2022-12-25T21:31:52.210Z,11.93
2022-12-25T21:34:19.359Z,9.32
2022-12-25T21:36:47.532Z,9.88
2022-12-25T21:39:17.319Z,11.50
2022-12-25T21:41:45.526Z,10.82
2022-12-25T21:44:13.628Z,10.07
2022-12-25T21:46:41.842Z,12.38
2022-12-25T21:49:10.735Z,13.13
2022-12-25T21:51:56.089Z,10.73
2022-12-25T21:54:25.531Z,11.88
2022-12-25T21:56:53.684Z,10.98
2022-12-25T21:59:22.941Z,10.93
2022-12-25T22:01:52.771Z,11.32
2022-12-25T22:04:24.590Z,13.23
2022-12-25T22:07:10.917Z,12.00
2022-12-25T22:09:40.462Z,8.88
2022-12-25T22:12:31.866Z,8.77
2022-12-25T22:17:55.003Z,11.93
2022-12-25T22:20:24.957Z,9.73
2022-12-25T22:22:53.794Z,8.75
2022-12-25T22:25:24.308Z,10.38
2022-12-25T22:27:52.901Z,10.88
2022-12-25T22:30:23.492Z,11.50
2022-12-25T22:32:52.332Z,9.90
2022-12-25T22:35:21.426Z,10.35
2022-12-25T22:37:49.881Z,10.00
2022-12-25T22:40:19.804Z,10.05
2022-12-25T22:42:49.541Z,8.98
2022-12-25T22:45:17.773Z,10.48
2022-12-25T22:47:45.885Z,10.38
2022-12-25T22:50:15.755Z,8.60
2022-12-25T22:52:45.737Z,10.35
2022-12-25T22:55:18.664Z,10.60
2022-12-25T22:57:46.884Z,10.73
2022-12-25T23:00:16.646Z,10.32
2022-12-25T23:02:44.846Z,10.50
2022-12-25T23:05:13.227Z,9.05
2022-12-25T23:07:41.797Z,9.98
2022-12-25T23:10:10.756Z,9.65
2022-12-25T23:12:56.352Z,8.52
2022-12-25T23:15:27.614Z,10.15
2022-12-25T23:18:13.497Z,10.70
2022-12-25T23:20:59.292Z,10.07
2022-12-25T23:23:44.763Z,9.90
2022-12-25T23:26:13.754Z,10.52
2022-12-25T23:29:00.904Z,9.57
2022-12-25T23:31:35.232Z,10.90
2022-12-25T23:34:04.815Z,11.68
2022-12-25T23:36:33.089Z,9.10
2022-12-25T23:39:08.713Z,10.68
2022-12-25T23:41:38.823Z,10.93
2022-12-25T23:44:07.095Z,12.05
2022-12-25T23:46:37.090Z,11.20
2022-12-25T23:49:06.350Z,10.35
2022-12-25T23:51:37.671Z,10.40
2022-12-25T23:54:06.585Z,11.15
2022-12-25T23:56:34.962Z,10.23
2022-12-25T23:59:03.293Z,9.73
